createdAt,value
2023-02-22T00:00:59.696Z,95.44
2023-02-22T00:01:41.532Z,95.44
2023-02-22T00:02:33.548Z,94.85
2023-02-22T00:03:08.028Z,95.13
2023-02-22T00:03:58.511Z,95.77
2023-02-22T00:04:35.473Z,95.56
2023-02-22T00:05:26.501Z,96.18
2023-02-22T00:06:06.573Z,95.40
2023-02-22T00:06:54.506Z,95.49
2023-02-22T00:07:28.555Z,95.57
2023-02-22T00:08:08.541Z,95.99
2023-02-22T00:08:49.652Z,95.59
2023-02-22T00:09:29.494Z,96.18
2023-02-22T00:10:13.302Z,96.24
2023-02-22T00:10:57.500Z,96.08
2023-02-22T00:11:38.562Z,95.69
2023-02-22T00:12:18.497Z,96.07
2023-02-22T00:13:00.604Z,95.46
2023-02-22T00:13:43.524Z,95.60
2023-02-22T00:14:27.382Z,95.21
2023-02-22T00:15:07.523Z,95.85
2023-02-22T00:15:47.563Z,96.15
2023-02-22T00:16:30.527Z,95.86
2023-02-22T00:17:13.434Z,95.96
2023-02-22T00:17:54.501Z,95.69
2023-02-22T00:18:37.742Z,95.51
2023-02-22T00:19:17.545Z,95.73
2023-02-22T00:19:57.701Z,95.82
2023-02-22T00:20:37.489Z,95.85
2023-02-22T00:21:20.626Z,95.98
2023-02-22T00:22:01.528Z,96.55
2023-02-22T00:22:41.624Z,96.32
2023-02-22T00:23:27.491Z,96.47
2023-02-22T00:24:29.575Z,96.19
2023-02-22T00:25:24.475Z,96.37
2023-02-22T00:26:19.483Z,96.22
2023-02-22T00:27:13.504Z,96.52
2023-02-22T00:28:07.491Z,95.84
2023-02-22T00:29:06.479Z,95.98
2023-02-22T00:29:53.518Z,96.14
2023-02-22T00:30:31.883Z,96.44
2023-02-22T00:31:18.805Z,96.45
2023-02-22T00:31:52.653Z,96.63
2023-02-22T00:32:39.488Z,96.14
2023-02-22T00:33:21.548Z,96.09
2023-02-22T00:34:02.460Z,96.47
2023-02-22T00:34:43.655Z,95.91
2023-02-22T00:35:26.505Z,96.32
2023-02-22T00:36:06.593Z,96.27
2023-02-22T00:36:55.496Z,96.42
2023-02-22T00:37:36.102Z,96.26
2023-02-22T00:38:17.472Z,96.71
2023-02-22T00:38:57.575Z,96.34
2023-02-22T00:39:37.463Z,96.48
2023-02-22T00:40:22.540Z,96.28
2023-02-22T00:41:02.515Z,96.13
2023-02-22T00:41:43.634Z,96.14
2023-02-22T00:42:26.469Z,96.07
2023-02-22T00:43:09.564Z,96.30
2023-02-22T00:43:49.486Z,96.32
2023-02-22T00:44:29.532Z,96.16
2023-02-22T00:45:10.463Z,95.33
2023-02-22T00:45:51.563Z,95.48
2023-02-22T00:46:31.471Z,95.38
2023-02-22T00:47:11.543Z,95.36
2023-02-22T00:47:51.464Z,96.00
2023-02-22T00:48:32.676Z,96.31
2023-02-22T00:49:12.482Z,96.22
2023-02-22T00:49:53.597Z,95.54
2023-02-22T00:50:35.482Z,95.22
2023-02-22T00:51:15.802Z,95.63
2023-02-22T00:51:56.484Z,95.56
2023-02-22T00:52:36.921Z,95.46
2023-02-22T00:53:18.451Z,94.93
2023-02-22T00:53:59.531Z,95.19
2023-02-22T00:54:39.481Z,94.97
2023-02-22T00:55:27.595Z,95.54
2023-02-22T00:56:08.464Z,95.60
2023-02-22T00:56:50.433Z,95.37
2023-02-22T00:57:31.476Z,95.03
2023-02-22T00:58:13.572Z,94.95
2023-02-22T00:58:53.437Z,95.38
2023-02-22T00:59:33.526Z,95.22
2023-02-22T01:00:19.451Z,94.88
2023-02-22T01:00:59.522Z,94.87
2023-02-22T01:01:39.511Z,95.22
2023-02-22T01:02:20.574Z,94.70
2023-02-22T01:03:02.486Z,94.45
2023-02-22T01:03:42.592Z,94.96
2023-02-22T01:04:24.434Z,94.72
2023-02-22T01:05:04.501Z,94.76
2023-02-22T01:05:45.429Z,94.54
2023-02-22T01:06:26.526Z,94.55
2023-02-22T01:07:07.459Z,94.72
2023-02-22T01:07:48.526Z,94.38
2023-02-22T01:08:31.456Z,94.92
2023-02-22T01:09:11.513Z,94.22
2023-02-22T01:09:51.456Z,94.60
2023-02-22T01:10:35.504Z,94.29
2023-02-22T01:11:16.811Z,94.21
2023-02-22T01:12:02.297Z,94.21
2023-02-22T01:12:42.442Z,94.91
2023-02-22T01:13:23.030Z,95.00
2023-02-22T01:14:04.471Z,95.30
2023-02-22T01:14:45.498Z,95.36
2023-02-22T01:15:29.450Z,95.21
2023-02-22T01:16:10.529Z,95.29
2023-02-22T01:16:50.511Z,95.06
2023-02-22T01:17:31.494Z,95.14
2023-02-22T01:18:12.433Z,95.18
2023-02-22T01:18:53.531Z,95.28
2023-02-22T01:19:33.467Z,95.37
2023-02-22T01:20:16.522Z,95.74
2023-02-22T01:20:56.459Z,95.95
2023-02-22T01:21:36.481Z,95.52
2023-02-22T01:22:17.437Z,95.72
2023-02-22T01:23:00.523Z,95.57
2023-02-22T01:23:40.420Z,95.23
2023-02-22T01:24:22.505Z,95.29
2023-02-22T01:25:02.444Z,95.51
2023-02-22T01:25:43.819Z,95.48
2023-02-22T01:26:24.430Z,95.09
2023-02-22T01:27:05.495Z,95.22
2023-02-22T01:27:45.457Z,95.07
2023-02-22T01:28:26.549Z,95.02
2023-02-22T01:29:06.421Z,95.39
2023-02-22T01:29:46.540Z,95.40
2023-02-22T01:30:34.545Z,95.83
2023-02-22T01:31:15.921Z,95.28
2023-02-22T01:32:01.484Z,95.23
2023-02-22T01:32:47.523Z,95.39
2023-02-22T01:33:34.431Z,95.54
2023-02-22T01:34:09.032Z,95.73
2023-02-22T01:34:59.430Z,95.43
2023-02-22T01:35:44.449Z,95.60
2023-02-22T01:36:38.402Z,95.33
2023-02-22T01:37:32.414Z,95.38
2023-02-22T01:38:26.392Z,95.44
2023-02-22T01:39:20.432Z,95.08
2023-02-22T01:40:14.437Z,94.43
2023-02-22T01:41:01.447Z,94.55
2023-02-22T01:41:35.480Z,94.15
2023-02-22T01:42:23.405Z,93.82
2023-02-22T01:43:04.493Z,94.12
2023-02-22T01:43:52.404Z,94.45
2023-02-22T01:44:44.489Z,94.15
2023-02-22T01:45:37.389Z,94.10
2023-02-22T01:46:30.506Z,94.25
2023-02-22T01:47:24.407Z,94.31
2023-02-22T01:48:56.416Z,95.43
2023-02-22T01:50:01.397Z,94.81
2023-02-22T01:51:17.731Z,95.03
2023-02-22T01:51:59.386Z,94.98
2023-02-22T01:52:39.471Z,95.32
2023-02-22T01:53:23.401Z,95.23
2023-02-22T01:54:36.458Z,95.72
2023-02-22T01:55:17.400Z,95.57
2023-02-22T01:55:58.452Z,95.94
2023-02-22T01:56:43.387Z,95.46
2023-02-22T01:57:36.409Z,95.62
2023-02-22T01:58:11.489Z,95.79
2023-02-22T01:59:08.398Z,95.77
2023-02-22T01:59:45.464Z,95.43
2023-02-22T02:00:34.397Z,94.82
2023-02-22T02:01:08.440Z,95.35
2023-02-22T02:01:56.396Z,94.81
2023-02-22T02:02:30.447Z,95.16
2023-02-22T02:03:21.400Z,95.34
2023-02-22T02:04:06.458Z,95.46
2023-02-22T02:04:49.407Z,95.29
2023-02-22T02:05:31.330Z,94.74
2023-02-22T02:06:18.415Z,94.53
2023-02-22T02:07:00.445Z,94.26
2023-02-22T02:07:43.375Z,93.67
2023-02-22T02:09:02.405Z,93.55
2023-02-22T02:10:12.404Z,93.54
2023-02-22T02:11:09.429Z,93.40
2023-02-22T02:12:04.392Z,93.46
2023-02-22T02:13:02.394Z,92.87
2023-02-22T02:13:56.383Z,92.44
2023-02-22T02:14:38.392Z,92.66
2023-02-22T02:15:31.449Z,92.62
2023-02-22T02:16:12.380Z,92.31
2023-02-22T02:17:01.316Z,92.44
2023-02-22T02:17:43.358Z,91.95
2023-02-22T02:18:23.421Z,91.86
2023-02-22T02:19:04.405Z,91.80
2023-02-22T02:20:18.432Z,91.64
2023-02-22T02:21:54.381Z,91.33
2023-02-22T02:23:01.375Z,91.30
2023-02-22T02:24:37.376Z,91.52
2023-02-22T02:26:04.409Z,91.38
2023-02-22T02:27:34.388Z,91.16
2023-02-22T02:28:47.398Z,91.37
2023-02-22T02:30:37.479Z,91.44
2023-02-22T02:31:44.482Z,91.11
2023-02-22T02:32:53.865Z,91.21
2023-02-22T02:33:58.359Z,90.73
2023-02-22T02:35:01.432Z,91.16
2023-02-22T02:36:10.336Z,91.06
2023-02-22T02:37:21.368Z,91.00
2023-02-22T02:38:34.361Z,90.73
2023-02-22T02:39:51.365Z,90.52
2023-02-22T02:41:01.357Z,90.30
2023-02-22T02:42:03.344Z,90.22
2023-02-22T02:42:57.355Z,90.21
2023-02-22T02:44:00.474Z,90.14
2023-02-22T02:44:53.369Z,89.64
2023-02-22T02:45:56.478Z,90.00
2023-02-22T02:46:57.383Z,90.05
2023-02-22T02:47:44.428Z,89.79
2023-02-22T02:48:28.393Z,89.87
2023-02-22T02:49:19.422Z,90.24
2023-02-22T02:50:44.314Z,90.07
2023-02-22T02:51:25.419Z,89.86
2023-02-22T02:52:07.341Z,89.48
2023-02-22T02:52:48.406Z,89.56
2023-02-22T02:53:33.361Z,89.81
2023-02-22T02:54:13.396Z,89.73
2023-02-22T02:54:54.331Z,89.61
2023-02-22T02:55:36.756Z,89.29
2023-02-22T02:56:17.344Z,89.46
2023-02-22T02:56:57.388Z,89.50
2023-02-22T02:57:37.345Z,89.43
2023-02-22T02:58:29.604Z,89.71
2023-02-22T02:59:09.368Z,89.40
2023-02-22T02:59:49.417Z,89.76
2023-02-22T03:00:35.350Z,89.64
2023-02-22T03:01:15.788Z,89.07
2023-02-22T03:02:32.329Z,89.13
2023-02-22T03:03:28.383Z,89.20
2023-02-22T03:04:37.369Z,89.15
2023-02-22T03:05:41.416Z,89.34
2023-02-22T03:07:01.328Z,89.78
2023-02-22T03:08:16.374Z,89.35
2023-02-22T03:09:20.341Z,89.23
2023-02-22T03:10:26.338Z,89.57
2023-02-22T03:11:34.411Z,89.29
2023-02-22T03:12:55.351Z,88.93
2023-02-22T03:13:45.079Z,89.10
2023-02-22T03:14:47.349Z,89.23
2023-02-22T03:15:33.527Z,89.24
2023-02-22T03:16:48.313Z,89.02
2023-02-22T03:18:13.335Z,89.13
2023-02-22T03:19:24.329Z,88.70
2023-02-22T03:20:38.370Z,88.81
2023-02-22T03:21:54.330Z,88.56
2023-02-22T03:22:59.298Z,88.35
2023-02-22T03:24:28.324Z,88.50
2023-02-22T03:25:36.371Z,88.41
2023-02-22T03:26:26.327Z,88.55
2023-02-22T03:27:44.417Z,88.28
2023-02-22T03:28:27.314Z,88.16
2023-02-22T03:29:08.363Z,88.48
2023-02-22T03:29:51.289Z,88.03
2023-02-22T03:31:37.341Z,88.43
2023-02-22T03:32:37.320Z,88.77
2023-02-22T03:33:40.313Z,89.08
2023-02-22T03:34:40.310Z,89.04
2023-02-22T03:35:39.329Z,89.54
2023-02-22T03:36:39.354Z,89.46
2023-02-22T03:37:35.354Z,89.20
2023-02-22T03:38:19.314Z,88.89
2023-02-22T03:39:00.367Z,88.77
2023-02-22T03:39:43.313Z,88.69
2023-02-22T03:40:30.353Z,88.84
2023-02-22T03:41:11.305Z,88.84
2023-02-22T03:42:03.327Z,88.67
2023-02-22T03:43:02.312Z,88.51
2023-02-22T03:44:03.315Z,88.19
2023-02-22T03:44:58.318Z,88.43
2023-02-22T03:45:55.301Z,88.47
2023-02-22T03:46:50.304Z,88.22
2023-02-22T03:47:43.302Z,88.36
2023-02-22T03:48:38.354Z,88.21
2023-02-22T03:49:38.311Z,88.18
2023-02-22T03:50:26.292Z,88.23
2023-02-22T03:51:09.305Z,87.90
2023-02-22T03:51:49.446Z,88.13
2023-02-22T03:52:30.312Z,88.06
2023-02-22T03:53:11.305Z,87.61
2023-02-22T03:53:45.376Z,87.88
2023-02-22T03:54:34.270Z,87.59
2023-02-22T03:55:11.148Z,87.71
2023-02-22T03:55:59.294Z,87.63
2023-02-22T03:56:41.328Z,87.80
2023-02-22T03:57:39.293Z,87.81
2023-02-22T03:58:25.321Z,87.83
2023-02-22T03:59:22.289Z,87.43
2023-02-22T04:00:21.284Z,87.23
2023-02-22T04:01:15.695Z,87.08
2023-02-22T04:02:11.280Z,87.32
2023-02-22T04:03:05.402Z,86.84
2023-02-22T04:03:46.287Z,87.14
2023-02-22T04:04:26.384Z,87.46
2023-02-22T04:05:07.284Z,87.50
2023-02-22T04:05:47.402Z,86.82
2023-02-22T04:06:27.259Z,87.02
2023-02-22T04:07:07.346Z,86.97
2023-02-22T04:07:48.267Z,86.73
2023-02-22T04:08:30.211Z,86.67
2023-02-22T04:09:10.315Z,87.16
2023-02-22T04:09:50.383Z,87.75
2023-02-22T04:10:31.274Z,88.62
2023-02-22T04:11:11.373Z,88.18
2023-02-22T04:11:52.270Z,88.71
2023-02-22T04:12:32.333Z,89.57
2023-02-22T04:13:16.268Z,89.22
2023-02-22T04:13:57.118Z,89.87
2023-02-22T04:14:37.284Z,89.56
2023-02-22T04:15:22.376Z,89.81
2023-02-22T04:16:02.360Z,89.75
2023-02-22T04:16:42.348Z,89.52
2023-02-22T04:17:22.268Z,89.41
2023-02-22T04:18:02.325Z,89.38
2023-02-22T04:18:42.283Z,90.38
2023-02-22T04:19:22.320Z,89.97
2023-02-22T04:20:03.293Z,90.08
2023-02-22T04:20:44.676Z,90.42
2023-02-22T04:21:24.262Z,90.42
2023-02-22T04:22:04.330Z,91.10
2023-02-22T04:22:44.266Z,91.67
2023-02-22T04:23:24.332Z,92.11
2023-02-22T04:24:05.275Z,92.39
2023-02-22T04:24:45.426Z,92.49
2023-02-22T04:25:26.316Z,92.81
2023-02-22T04:26:06.326Z,92.87
2023-02-22T04:26:47.254Z,92.81
2023-02-22T04:27:27.304Z,92.83
2023-02-22T04:28:07.232Z,92.76
2023-02-22T04:28:47.327Z,92.35
2023-02-22T04:29:28.244Z,92.04
2023-02-22T04:30:08.344Z,91.87
2023-02-22T04:30:50.317Z,92.16
2023-02-22T04:31:30.330Z,92.35
2023-02-22T04:32:11.299Z,91.77
2023-02-22T04:32:52.352Z,91.25
2023-02-22T04:33:33.263Z,91.73
2023-02-22T04:34:13.346Z,91.22
2023-02-22T04:34:53.230Z,90.96
2023-02-22T04:35:35.492Z,90.54
2023-02-22T04:36:17.275Z,90.74
2023-02-22T04:36:57.332Z,90.49
2023-02-22T04:37:38.252Z,90.73
2023-02-22T04:38:12.029Z,91.25
2023-02-22T04:39:00.290Z,90.56
2023-02-22T04:39:34.955Z,90.67
2023-02-22T04:40:23.230Z,90.59
2023-02-22T04:40:56.925Z,90.36
2023-02-22T04:41:38.259Z,89.94
2023-02-22T04:42:12.291Z,89.29
2023-02-22T04:42:46.043Z,89.12
2023-02-22T04:43:27.233Z,89.67
2023-02-22T04:44:01.301Z,89.37
2023-02-22T04:44:34.981Z,89.98
2023-02-22T04:45:16.230Z,90.83
2023-02-22T04:45:50.296Z,90.55
2023-02-22T04:46:24.163Z,90.47
2023-02-22T04:47:04.248Z,90.21
2023-02-22T04:47:38.356Z,89.57
2023-02-22T04:48:12.043Z,89.42
2023-02-22T04:48:52.242Z,89.61
2023-02-22T04:49:26.309Z,89.23
2023-02-22T04:50:00.367Z,89.50
2023-02-22T04:50:41.461Z,89.85
2023-02-22T04:51:15.598Z,89.67
2023-02-22T04:51:49.963Z,89.76
2023-02-22T04:52:30.243Z,89.49
2023-02-22T04:53:04.305Z,89.72
2023-02-22T04:53:37.927Z,89.54
2023-02-22T04:54:20.236Z,88.57
2023-02-22T04:54:54.397Z,88.99
2023-02-22T04:55:29.043Z,88.21
2023-02-22T04:56:10.217Z,87.94
2023-02-22T04:56:44.298Z,87.85
2023-02-22T04:57:17.955Z,88.28
2023-02-22T04:57:58.230Z,88.47
2023-02-22T04:58:32.286Z,88.84
2023-02-22T04:59:05.902Z,88.23
2023-02-22T04:59:47.337Z,88.00
2023-02-22T05:00:26.267Z,88.27
2023-02-22T05:01:00.950Z,88.26
2023-02-22T05:01:43.218Z,88.43
2023-02-22T05:02:17.360Z,88.52
2023-02-22T05:02:51.385Z,88.65
2023-02-22T05:03:32.247Z,88.75
2023-02-22T05:04:08.273Z,88.74
2023-02-22T05:04:42.053Z,88.52
2023-02-22T05:05:28.242Z,88.97
2023-02-22T05:06:02.287Z,88.97
2023-02-22T05:06:35.908Z,89.10
2023-02-22T05:07:17.178Z,88.91
2023-02-22T05:07:51.339Z,89.14
2023-02-22T05:08:24.916Z,89.14
2023-02-22T05:09:05.250Z,89.64
2023-02-22T05:09:39.309Z,89.49
2023-02-22T05:10:13.070Z,89.50
2023-02-22T05:10:53.241Z,89.82
2023-02-22T05:11:27.264Z,90.01
2023-02-22T05:12:00.959Z,90.23
2023-02-22T05:12:42.211Z,90.34
2023-02-22T05:13:16.425Z,90.41
2023-02-22T05:13:50.010Z,90.01
2023-02-22T05:14:33.226Z,90.26
2023-02-22T05:15:07.296Z,90.81
2023-02-22T05:15:40.950Z,90.34
2023-02-22T05:16:22.281Z,90.70
2023-02-22T05:16:56.346Z,91.07
2023-02-22T05:17:29.932Z,90.65
2023-02-22T05:18:11.216Z,91.06
2023-02-22T05:18:45.270Z,90.24
2023-02-22T05:19:19.879Z,90.41
2023-02-22T05:20:00.205Z,90.42
2023-02-22T05:20:40.262Z,90.37
2023-02-22T05:21:13.967Z,90.03
2023-02-22T05:21:55.213Z,89.59
2023-02-22T05:22:29.416Z,90.11
2023-02-22T05:23:05.083Z,89.89
2023-02-22T05:23:46.203Z,89.66
2023-02-22T05:24:20.254Z,89.97
2023-02-22T05:24:53.965Z,89.64
2023-02-22T05:25:35.248Z,89.28
2023-02-22T05:26:11.667Z,89.22
2023-02-22T05:26:46.484Z,90.23
2023-02-22T05:27:27.248Z,89.95
2023-02-22T05:28:12.606Z,90.08
2023-02-22T05:28:46.955Z,90.32
2023-02-22T05:29:27.206Z,90.38
2023-02-22T05:30:01.310Z,90.52
2023-02-22T05:30:46.312Z,90.21
2023-02-22T05:31:26.334Z,90.23
2023-02-22T05:32:09.197Z,90.49
2023-02-22T05:32:49.273Z,90.73
2023-02-22T05:33:29.171Z,90.85
2023-02-22T05:34:09.279Z,90.87
2023-02-22T05:34:49.277Z,90.64
2023-02-22T05:35:30.269Z,91.07
2023-02-22T05:36:12.209Z,90.75
2023-02-22T05:36:52.664Z,90.65
2023-02-22T05:37:33.172Z,90.67
2023-02-22T05:38:15.046Z,90.63
2023-02-22T05:38:56.186Z,90.76
2023-02-22T05:39:37.246Z,90.62
2023-02-22T05:40:21.202Z,90.89
2023-02-22T05:41:01.253Z,91.65
2023-02-22T05:41:41.221Z,91.53
2023-02-22T05:42:22.027Z,91.44
2023-02-22T05:43:05.184Z,91.43
2023-02-22T05:43:46.236Z,90.58
2023-02-22T05:44:27.183Z,90.87
2023-02-22T05:45:07.246Z,90.49
2023-02-22T05:45:47.195Z,90.77
2023-02-22T05:46:27.285Z,89.99
2023-02-22T05:47:07.205Z,89.83
2023-02-22T05:47:48.291Z,89.78
2023-02-22T05:48:29.189Z,89.56
2023-02-22T05:49:10.300Z,89.37
2023-02-22T05:49:50.175Z,89.51
2023-02-22T05:50:33.093Z,89.87
2023-02-22T05:51:14.384Z,89.14
2023-02-22T05:51:59.153Z,89.57
2023-02-22T05:52:39.197Z,89.75
2023-02-22T05:53:19.471Z,89.87
2023-02-22T05:53:59.192Z,89.86
2023-02-22T05:54:39.350Z,89.66
2023-02-22T05:55:23.231Z,90.07
2023-02-22T05:56:03.235Z,89.39
2023-02-22T05:56:44.175Z,89.24
2023-02-22T05:57:24.300Z,89.36
2023-02-22T05:58:04.274Z,89.34
2023-02-22T05:58:44.250Z,88.91
2023-02-22T05:59:24.154Z,88.74
2023-02-22T06:00:04.474Z,88.65
2023-02-22T06:00:45.166Z,88.83
2023-02-22T06:01:26.998Z,88.86
2023-02-22T06:02:07.232Z,88.68
2023-02-22T06:02:47.239Z,88.52
2023-02-22T06:03:27.177Z,88.77
2023-02-22T06:04:09.078Z,88.42
2023-02-22T06:04:53.146Z,88.61
2023-02-22T06:05:34.286Z,88.57
2023-02-22T06:06:14.164Z,88.48
2023-02-22T06:06:54.289Z,88.61
2023-02-22T06:07:34.179Z,89.05
2023-02-22T06:08:15.247Z,88.74
2023-02-22T06:08:55.192Z,88.77
2023-02-22T06:09:35.269Z,89.32
2023-02-22T06:10:15.183Z,89.02
2023-02-22T06:10:55.207Z,88.91
2023-02-22T06:11:35.175Z,88.67
2023-02-22T06:12:16.374Z,88.64
2023-02-22T06:12:57.174Z,88.99
2023-02-22T06:13:37.264Z,89.18
2023-02-22T06:14:17.179Z,88.61
2023-02-22T06:14:57.204Z,88.62
2023-02-22T06:15:38.195Z,88.55
2023-02-22T06:16:19.390Z,88.55
2023-02-22T06:17:02.167Z,88.62
2023-02-22T06:17:45.279Z,88.73
2023-02-22T06:18:25.173Z,88.93
2023-02-22T06:19:05.422Z,88.38
2023-02-22T06:19:47.215Z,88.85
2023-02-22T06:20:30.292Z,88.43
2023-02-22T06:21:11.148Z,88.59
2023-02-22T06:22:03.073Z,89.12
2023-02-22T06:22:43.170Z,90.09
2023-02-22T06:23:23.250Z,89.91
2023-02-22T06:24:03.180Z,89.89
2023-02-22T06:24:45.229Z,90.12
2023-02-22T06:25:30.152Z,89.85
2023-02-22T06:26:10.245Z,90.00
2023-02-22T06:26:50.151Z,90.31
2023-02-22T06:27:30.205Z,90.26
2023-02-22T06:28:11.171Z,89.87
2023-02-22T06:28:55.197Z,90.43
2023-02-22T06:29:36.124Z,89.90
2023-02-22T06:30:19.244Z,89.87
2023-02-22T06:30:59.224Z,90.02
2023-02-22T06:31:39.258Z,89.73
2023-02-22T06:32:20.214Z,89.51
2023-02-22T06:33:01.207Z,89.72
2023-02-22T06:33:41.201Z,89.67
2023-02-22T06:34:21.954Z,89.62
2023-02-22T06:35:02.335Z,89.88
2023-02-22T06:35:42.374Z,89.67
2023-02-22T06:36:22.152Z,89.41
2023-02-22T06:37:03.211Z,89.66
2023-02-22T06:37:43.132Z,89.51
2023-02-22T06:38:31.218Z,89.80
2023-02-22T06:39:11.140Z,89.57
2023-02-22T06:39:51.235Z,89.48
2023-02-22T06:40:36.354Z,89.33
2023-02-22T06:41:17.425Z,89.20
2023-02-22T06:41:59.210Z,89.98
2023-02-22T06:42:40.377Z,89.75
2023-02-22T06:43:20.144Z,89.95
2023-02-22T06:44:00.196Z,89.88
2023-02-22T06:44:40.132Z,90.61
2023-02-22T06:45:22.310Z,90.79
2023-02-22T06:46:02.232Z,90.25
2023-02-22T06:46:43.256Z,89.99
2023-02-22T06:47:23.196Z,89.59
2023-02-22T06:48:03.226Z,89.83
2023-02-22T06:48:46.146Z,89.81
2023-02-22T06:49:27.412Z,89.96
2023-02-22T06:50:07.105Z,90.22
2023-02-22T06:50:47.175Z,90.08
2023-02-22T06:51:28.143Z,89.98
2023-02-22T06:52:11.376Z,90.46
2023-02-22T06:52:54.168Z,89.97
2023-02-22T06:53:35.231Z,90.26
2023-02-22T06:54:15.163Z,90.27
2023-02-22T06:54:56.280Z,90.14
2023-02-22T06:55:39.128Z,89.95
2023-02-22T06:56:19.192Z,90.07
2023-02-22T06:56:59.130Z,89.94
2023-02-22T06:57:40.300Z,89.88
2023-02-22T06:58:20.273Z,89.86
2023-02-22T06:59:02.869Z,90.28
2023-02-22T06:59:43.128Z,89.82
2023-02-22T07:00:27.277Z,90.37
2023-02-22T07:01:10.206Z,90.12
2023-02-22T07:01:51.324Z,90.14
2023-02-22T07:02:31.113Z,90.41
2023-02-22T07:03:14.102Z,90.47
2023-02-22T07:03:56.156Z,90.35
2023-02-22T07:04:37.333Z,89.87
2023-02-22T07:05:19.148Z,89.93
2023-02-22T07:06:00.184Z,90.35
2023-02-22T07:06:40.162Z,90.12
2023-02-22T07:07:20.216Z,90.36
2023-02-22T07:08:03.170Z,90.36
2023-02-22T07:08:44.206Z,90.34
2023-02-22T07:09:25.152Z,90.42
2023-02-22T07:10:06.233Z,90.61
2023-02-22T07:10:47.100Z,90.77
2023-02-22T07:11:27.207Z,90.77
2023-02-22T07:12:07.144Z,90.28
2023-02-22T07:12:48.589Z,90.89
2023-02-22T07:13:29.112Z,90.90
2023-02-22T07:14:10.191Z,91.00
2023-02-22T07:14:50.278Z,90.65
2023-02-22T07:15:32.626Z,90.82
2023-02-22T07:16:13.141Z,90.85
2023-02-22T07:16:53.197Z,90.93
2023-02-22T07:17:33.074Z,90.93
2023-02-22T07:18:16.030Z,90.65
2023-02-22T07:18:56.106Z,90.67
2023-02-22T07:19:36.331Z,91.07
2023-02-22T07:20:18.127Z,91.07
2023-02-22T07:20:59.176Z,90.99
2023-02-22T07:21:39.109Z,91.15
2023-02-22T07:22:20.141Z,91.17
2023-02-22T07:23:01.106Z,90.98
2023-02-22T07:23:41.187Z,91.15
2023-02-22T07:24:21.104Z,91.07
2023-02-22T07:25:01.164Z,91.28
2023-02-22T07:25:42.114Z,90.96
2023-02-22T07:26:23.160Z,91.07
2023-02-22T07:27:03.074Z,91.35
2023-02-22T07:27:48.283Z,90.89
2023-02-22T07:28:28.115Z,91.11
2023-02-22T07:29:08.216Z,91.02
2023-02-22T07:29:50.077Z,90.99
2023-02-22T07:30:35.266Z,90.65
2023-02-22T07:31:15.352Z,90.99
2023-02-22T07:31:55.184Z,90.79
2023-02-22T07:32:35.199Z,91.02
2023-02-22T07:33:21.003Z,90.97
2023-02-22T07:34:01.124Z,90.81
2023-02-22T07:34:41.707Z,90.82
2023-02-22T07:35:29.079Z,90.92
2023-02-22T07:36:09.187Z,91.08
2023-02-22T07:36:49.114Z,91.01
2023-02-22T07:37:29.845Z,91.17
2023-02-22T07:38:12.079Z,91.08
2023-02-22T07:38:52.142Z,91.21
2023-02-22T07:39:33.054Z,91.38
2023-02-22T07:40:14.142Z,91.31
2023-02-22T07:40:55.053Z,91.34
2023-02-22T07:41:36.115Z,91.22
2023-02-22T07:42:17.069Z,91.51
2023-02-22T07:43:27.155Z,91.43
2023-02-22T07:44:07.074Z,91.35
2023-02-22T07:44:47.176Z,91.23
2023-02-22T07:45:28.130Z,91.18
2023-02-22T07:46:09.141Z,91.24
2023-02-22T07:46:51.065Z,91.02
2023-02-22T07:47:38.107Z,91.25
2023-02-22T07:48:12.764Z,91.35
2023-02-22T07:49:00.051Z,91.51
2023-02-22T07:49:33.776Z,91.45
2023-02-22T07:50:22.045Z,91.24
2023-02-22T07:50:55.770Z,91.28
2023-02-22T07:51:43.109Z,91.39
2023-02-22T07:52:17.653Z,91.23
2023-02-22T07:53:04.072Z,91.27
2023-02-22T07:53:39.112Z,91.37
2023-02-22T07:54:13.771Z,91.12
2023-02-22T07:54:54.078Z,91.26
2023-02-22T07:55:32.124Z,91.53
2023-02-22T07:56:08.677Z,91.42
2023-02-22T07:56:54.035Z,91.51
2023-02-22T07:57:28.122Z,91.80
2023-02-22T07:58:12.073Z,91.87
2023-02-22T07:58:53.130Z,91.53
2023-02-22T07:59:33.059Z,91.72
2023-02-22T08:00:14.534Z,91.60
2023-02-22T08:00:55.068Z,91.73
2023-02-22T08:01:37.352Z,91.69
2023-02-22T08:02:23.081Z,91.60
2023-02-22T08:03:09.079Z,91.71
2023-02-22T08:03:49.126Z,91.87
2023-02-22T08:04:29.155Z,91.49
2023-02-22T08:05:09.043Z,91.49
2023-02-22T08:05:54.147Z,91.53
2023-02-22T08:06:35.033Z,91.86
2023-02-22T08:07:16.230Z,91.94
2023-02-22T08:07:56.054Z,91.76
2023-02-22T08:08:36.110Z,91.97
2023-02-22T08:09:16.082Z,91.91
2023-02-22T08:09:56.117Z,91.99
2023-02-22T08:10:37.064Z,91.75
2023-02-22T08:11:18.351Z,92.11
2023-02-22T08:11:59.035Z,92.49
2023-02-22T08:12:41.137Z,92.45
2023-02-22T08:13:22.052Z,92.37
2023-02-22T08:14:02.113Z,92.99
2023-02-22T08:14:42.045Z,93.04
2023-02-22T08:15:31.212Z,93.21
2023-02-22T08:16:12.042Z,93.48
2023-02-22T08:16:52.174Z,93.38
2023-02-22T08:17:32.047Z,92.94
2023-02-22T08:18:16.248Z,92.58
2023-02-22T08:18:57.065Z,92.67
2023-02-22T08:19:37.726Z,92.79
2023-02-22T08:20:19.047Z,93.40
2023-02-22T08:21:00.087Z,93.29
2023-02-22T08:21:40.042Z,92.94
2023-02-22T08:22:22.001Z,92.83
2023-02-22T08:23:04.048Z,93.02
2023-02-22T08:23:44.141Z,92.89
2023-02-22T08:24:24.049Z,93.24
2023-02-22T08:25:04.098Z,93.38
2023-02-22T08:25:44.039Z,93.43
2023-02-22T08:26:25.423Z,93.47
2023-02-22T08:27:06.032Z,93.30
2023-02-22T08:27:46.074Z,93.10
2023-02-22T08:28:30.047Z,93.08
2023-02-22T08:29:10.134Z,93.29
2023-02-22T08:29:50.064Z,93.01
2023-02-22T08:30:31.292Z,93.32
2023-02-22T08:31:14.103Z,92.90
2023-02-22T08:31:58.229Z,93.14
2023-02-22T08:32:38.091Z,92.96
2023-02-22T08:33:20.454Z,93.12
2023-02-22T08:34:01.011Z,93.01
2023-02-22T08:34:41.075Z,92.47
2023-02-22T08:35:29.030Z,92.42
2023-02-22T08:36:09.226Z,92.78
2023-02-22T08:36:50.086Z,92.81
2023-02-22T08:37:30.090Z,92.50
2023-02-22T08:38:14.055Z,92.92
2023-02-22T08:38:54.098Z,92.51
2023-02-22T08:39:34.030Z,92.17
2023-02-22T08:40:17.116Z,92.50
2023-02-22T08:40:57.996Z,92.14
2023-02-22T08:41:39.063Z,92.05
2023-02-22T08:42:19.007Z,92.16
2023-02-22T08:43:02.184Z,91.88
2023-02-22T08:43:42.028Z,91.91
2023-02-22T08:44:24.121Z,92.07
2023-02-22T08:45:04.082Z,92.16
2023-02-22T08:45:45.415Z,91.56
2023-02-22T08:46:26.041Z,91.33
2023-02-22T08:47:06.101Z,91.88
2023-02-22T08:47:47.033Z,91.47
2023-02-22T08:48:27.116Z,91.49
2023-02-22T08:49:07.028Z,91.47
2023-02-22T08:49:48.081Z,91.58
2023-02-22T08:50:40.009Z,92.14
2023-02-22T08:51:20.114Z,92.04
2023-02-22T08:52:00.010Z,92.05
2023-02-22T08:52:40.048Z,91.83
2023-02-22T08:53:21.028Z,91.77
2023-02-22T08:54:03.308Z,92.09
2023-02-22T08:54:42.976Z,91.72
2023-02-22T08:55:27.086Z,91.72
2023-02-22T08:56:07.005Z,91.12
2023-02-22T08:56:47.059Z,91.01
2023-02-22T08:57:26.993Z,91.17
2023-02-22T08:58:12.169Z,90.55
2023-02-22T08:58:53.030Z,91.31
2023-02-22T08:59:33.080Z,90.87
2023-02-22T09:00:13.986Z,90.95
2023-02-22T09:00:54.119Z,90.21
2023-02-22T09:01:36.396Z,90.80
2023-02-22T09:02:23.256Z,90.55
2023-02-22T09:03:02.996Z,90.26
2023-02-22T09:03:43.082Z,90.65
2023-02-22T09:04:23.022Z,90.62
2023-02-22T09:05:05.182Z,90.40
2023-02-22T09:05:45.117Z,90.00
2023-02-22T09:06:26.045Z,90.00
2023-02-22T09:07:06.001Z,90.27
2023-02-22T09:07:50.072Z,90.50
2023-02-22T09:08:29.971Z,89.86
2023-02-22T09:09:10.083Z,90.28
2023-02-22T09:09:51.085Z,89.60
2023-02-22T09:10:39.133Z,89.45
2023-02-22T09:11:19.068Z,89.16
2023-02-22T09:11:59.055Z,89.24
2023-02-22T09:12:39.951Z,89.69
2023-02-22T09:13:20.036Z,89.75
2023-02-22T09:14:00.976Z,89.26
2023-02-22T09:14:42.738Z,89.19
2023-02-22T09:15:24.049Z,89.65
2023-02-22T09:16:04.030Z,89.23
2023-02-22T09:16:45.058Z,89.70
2023-02-22T09:17:25.043Z,89.24
2023-02-22T09:18:05.959Z,89.49
2023-02-22T09:18:46.183Z,89.17
2023-02-22T09:19:25.963Z,89.75
2023-02-22T09:20:06.023Z,88.78
2023-02-22T09:20:46.984Z,88.74
2023-02-22T09:21:27.125Z,88.92
2023-02-22T09:22:08.003Z,89.01
2023-02-22T09:22:48.041Z,89.19
2023-02-22T09:23:28.944Z,88.56
2023-02-22T09:24:09.028Z,89.13
2023-02-22T09:24:49.967Z,88.43
2023-02-22T09:25:30.012Z,88.66
2023-02-22T09:26:10.994Z,89.59